sensor_id;sensor_type;location;lat;lon;timestamp;temperature;humidity
24049;DHT22;12250;50.956;4.746;2022-07-29T00:00:43;19.30;76.70
24049;DHT22;12250;50.956;4.746;2022-07-29T00:03:12;19.20;77.30
24049;DHT22;12250;50.956;4.746;2022-07-29T00:05:40;19.10;77.60
24049;DHT22;12250;50.956;4.746;2022-07-29T00:08:06;19.10;78.20
24049;DHT22;12250;50.956;4.746;2022-07-29T00:10:32;19.00;78.40
24049;DHT22;12250;50.956;4.746;2022-07-29T00:12:58;18.90;78.90
24049;DHT22;12250;50.956;4.746;2022-07-29T00:15:23;18.80;79.40
24049;DHT22;12250;50.956;4.746;2022-07-29T00:17:49;18.80;79.70
24049;DHT22;12250;50.956;4.746;2022-07-29T00:20:15;18.70;80.10
24049;DHT22;12250;50.956;4.746;2022-07-29T00:22:41;18.70;80.30
24049;DHT22;12250;50.956;4.746;2022-07-29T00:25:07;18.70;81.30
24049;DHT22;12250;50.956;4.746;2022-07-29T00:27:36;18.70;81.60
24049;DHT22;12250;50.956;4.746;2022-07-29T00:30:03;18.60;82.70
24049;DHT22;12250;50.956;4.746;2022-07-29T00:32:29;18.60;83.00
24049;DHT22;12250;50.956;4.746;2022-07-29T00:34:55;18.50;83.50
24049;DHT22;12250;50.956;4.746;2022-07-29T00:37:47;18.50;84.50
24049;DHT22;12250;50.956;4.746;2022-07-29T00:40:12;18.40;85.10
24049;DHT22;12250;50.956;4.746;2022-07-29T00:42:49;18.40;85.40
24049;DHT22;12250;50.956;4.746;2022-07-29T00:45:16;18.40;85.60
24049;DHT22;12250;50.956;4.746;2022-07-29T00:47:42;18.30;85.80
24049;DHT22;12250;50.956;4.746;2022-07-29T00:50:09;18.30;86.50
24049;DHT22;12250;50.956;4.746;2022-07-29T00:52:37;18.20;86.80
24049;DHT22;12250;50.956;4.746;2022-07-29T00:55:04;18.20;87.30
24049;DHT22;12250;50.956;4.746;2022-07-29T00:57:30;18.20;87.50
24049;DHT22;12250;50.956;4.746;2022-07-29T00:59:56;18.20;88.30
24049;DHT22;12250;50.956;4.746;2022-07-29T01:02:22;18.20;88.70
24049;DHT22;12250;50.956;4.746;2022-07-29T01:04:48;18.10;89.30
24049;DHT22;12250;50.956;4.746;2022-07-29T01:07:14;18.10;89.60
24049;DHT22;12250;50.956;4.746;2022-07-29T01:09:42;18.10;89.70
24049;DHT22;12250;50.956;4.746;2022-07-29T01:12:08;18.10;89.90
24049;DHT22;12250;50.956;4.746;2022-07-29T01:14:35;18.20;90.00
24049;DHT22;12250;50.956;4.746;2022-07-29T01:17:13;18.20;90.00
24049;DHT22;12250;50.956;4.746;2022-07-29T01:25:34;18.20;90.10
24049;DHT22;12250;50.956;4.746;2022-07-29T01:30:46;18.10;90.50
24049;DHT22;12250;50.956;4.746;2022-07-29T01:33:15;18.10;90.50
24049;DHT22;12250;50.956;4.746;2022-07-29T01:36:05;18.10;90.80
24049;DHT22;12250;50.956;4.746;2022-07-29T01:38:34;18.00;90.90
24049;DHT22;12250;50.956;4.746;2022-07-29T01:41:13;18.00;91.10
24049;DHT22;12250;50.956;4.746;2022-07-29T01:43:50;17.90;91.40
24049;DHT22;12250;50.956;4.746;2022-07-29T01:46:33;17.90;91.40
24049;DHT22;12250;50.956;4.746;2022-07-29T01:49:02;17.80;91.60
24049;DHT22;12250;50.956;4.746;2022-07-29T01:51:52;17.70;91.80
24049;DHT22;12250;50.956;4.746;2022-07-29T01:54:39;17.60;91.90
24049;DHT22;12250;50.956;4.746;2022-07-29T01:57:14;17.50;92.40
24049;DHT22;12250;50.956;4.746;2022-07-29T01:59:43;17.40;92.70
24049;DHT22;12250;50.956;4.746;2022-07-29T02:02:11;17.30;93.10
24049;DHT22;12250;50.956;4.746;2022-07-29T02:04:40;17.20;93.40
24049;DHT22;12250;50.956;4.746;2022-07-29T02:07:11;17.20;93.80
24049;DHT22;12250;50.956;4.746;2022-07-29T02:09:39;17.20;94.00
24049;DHT22;12250;50.956;4.746;2022-07-29T02:12:07;17.10;94.60
24049;DHT22;12250;50.956;4.746;2022-07-29T02:14:37;17.10;94.60
24049;DHT22;12250;50.956;4.746;2022-07-29T02:17:03;17.20;95.00
24049;DHT22;12250;50.956;4.746;2022-07-29T02:19:31;17.10;95.20
24049;DHT22;12250;50.956;4.746;2022-07-29T02:21:58;17.10;95.50
24049;DHT22;12250;50.956;4.746;2022-07-29T02:24:25;17.10;95.70
24049;DHT22;12250;50.956;4.746;2022-07-29T02:26:55;17.20;96.20
24049;DHT22;12250;50.956;4.746;2022-07-29T02:29:24;17.10;96.60
24049;DHT22;12250;50.956;4.746;2022-07-29T02:31:51;17.10;97.20
24049;DHT22;12250;50.956;4.746;2022-07-29T02:34:19;17.00;97.70
24049;DHT22;12250;50.956;4.746;2022-07-29T02:36:46;17.00;98.10
24049;DHT22;12250;50.956;4.746;2022-07-29T02:39:13;16.90;98.40
24049;DHT22;12250;50.956;4.746;2022-07-29T02:41:43;16.80;98.90
24049;DHT22;12250;50.956;4.746;2022-07-29T02:44:12;16.70;99.40
24049;DHT22;12250;50.956;4.746;2022-07-29T02:46:48;16.70;99.80
24049;DHT22;12250;50.956;4.746;2022-07-29T02:51:51;16.60;99.90
24049;DHT22;12250;50.956;4.746;2022-07-29T02:56:59;16.60;99.90
24049;DHT22;12250;50.956;4.746;2022-07-29T02:59:27;16.60;99.90
24049;DHT22;12250;50.956;4.746;2022-07-29T03:01:57;16.50;99.90
24049;DHT22;12250;50.956;4.746;2022-07-29T03:04:25;16.50;99.90
24049;DHT22;12250;50.956;4.746;2022-07-29T03:06:53;16.40;99.90
24049;DHT22;12250;50.956;4.746;2022-07-29T03:09:21;16.40;99.90
24049;DHT22;12250;50.956;4.746;2022-07-29T03:11:48;16.30;99.90
24049;DHT22;12250;50.956;4.746;2022-07-29T03:14:14;16.20;99.90
24049;DHT22;12250;50.956;4.746;2022-07-29T03:16:41;16.10;99.90
24049;DHT22;12250;50.956;4.746;2022-07-29T03:19:07;16.00;99.90
24049;DHT22;12250;50.956;4.746;2022-07-29T03:21:33;16.00;99.90
24049;DHT22;12250;50.956;4.746;2022-07-29T03:23:59;15.90;99.90
24049;DHT22;12250;50.956;4.746;2022-07-29T03:26:25;15.70;99.90
24049;DHT22;12250;50.956;4.746;2022-07-29T03:28:51;15.70;99.90
24049;DHT22;12250;50.956;4.746;2022-07-29T03:31:16;15.50;99.90
24049;DHT22;12250;50.956;4.746;2022-07-29T03:33:42;15.50;99.90
24049;DHT22;12250;50.956;4.746;2022-07-29T03:36:08;15.40;99.90
24049;DHT22;12250;50.956;4.746;2022-07-29T03:38:35;15.30;99.90
24049;DHT22;12250;50.956;4.746;2022-07-29T03:41:07;15.20;99.90
24049;DHT22;12250;50.956;4.746;2022-07-29T03:43:36;15.10;99.90
24049;DHT22;12250;50.956;4.746;2022-07-29T03:46:05;15.10;99.90
24049;DHT22;12250;50.956;4.746;2022-07-29T03:48:33;15.00;99.90
24049;DHT22;12250;50.956;4.746;2022-07-29T03:51:01;15.00;99.90
24049;DHT22;12250;50.956;4.746;2022-07-29T03:53:27;14.90;99.90
24049;DHT22;12250;50.956;4.746;2022-07-29T03:55:57;14.90;99.90
24049;DHT22;12250;50.956;4.746;2022-07-29T03:58:26;14.80;99.90
24049;DHT22;12250;50.956;4.746;2022-07-29T04:00:53;14.70;99.90
24049;DHT22;12250;50.956;4.746;2022-07-29T04:03:19;14.70;99.90
24049;DHT22;12250;50.956;4.746;2022-07-29T04:05:45;14.60;99.90
24049;DHT22;12250;50.956;4.746;2022-07-29T04:08:22;14.60;99.90
24049;DHT22;12250;50.956;4.746;2022-07-29T04:10:48;14.50;99.90
24049;DHT22;12250;50.956;4.746;2022-07-29T04:13:14;14.40;99.90
24049;DHT22;12250;50.956;4.746;2022-07-29T04:15:39;14.40;99.90
24049;DHT22;12250;50.956;4.746;2022-07-29T04:18:05;14.40;99.90
24049;DHT22;12250;50.956;4.746;2022-07-29T04:20:31;14.40;99.90
24049;DHT22;12250;50.956;4.746;2022-07-29T04:22:56;14.40;99.90
24049;DHT22;12250;50.956;4.746;2022-07-29T04:25:22;14.40;99.90
24049;DHT22;12250;50.956;4.746;2022-07-29T04:27:48;14.30;99.90
24049;DHT22;12250;50.956;4.746;2022-07-29T04:30:26;14.30;99.90
24049;DHT22;12250;50.956;4.746;2022-07-29T04:32:52;14.30;99.90
24049;DHT22;12250;50.956;4.746;2022-07-29T04:35:19;14.30;99.90
24049;DHT22;12250;50.956;4.746;2022-07-29T04:37:45;14.30;99.90
24049;DHT22;12250;50.956;4.746;2022-07-29T04:40:11;14.30;99.90
24049;DHT22;12250;50.956;4.746;2022-07-29T04:42:38;14.30;99.90
24049;DHT22;12250;50.956;4.746;2022-07-29T04:45:04;14.30;99.90
24049;DHT22;12250;50.956;4.746;2022-07-29T04:47:29;14.40;99.90
24049;DHT22;12250;50.956;4.746;2022-07-29T04:49:55;14.30;99.90
24049;DHT22;12250;50.956;4.746;2022-07-29T04:52:22;14.30;99.90
24049;DHT22;12250;50.956;4.746;2022-07-29T04:54:47;14.40;99.90
24049;DHT22;12250;50.956;4.746;2022-07-29T04:57:13;14.40;99.90
24049;DHT22;12250;50.956;4.746;2022-07-29T04:59:39;14.40;99.90
24049;DHT22;12250;50.956;4.746;2022-07-29T05:02:05;14.40;99.90
24049;DHT22;12250;50.956;4.746;2022-07-29T05:04:30;14.50;99.90
24049;DHT22;12250;50.956;4.746;2022-07-29T05:06:56;14.50;99.90
24049;DHT22;12250;50.956;4.746;2022-07-29T05:09:22;14.60;99.90
24049;DHT22;12250;50.956;4.746;2022-07-29T05:11:47;14.60;99.90
24049;DHT22;12250;50.956;4.746;2022-07-29T05:14:13;14.70;99.90
24049;DHT22;12250;50.956;4.746;2022-07-29T05:16:39;14.80;99.90
24049;DHT22;12250;50.956;4.746;2022-07-29T05:19:05;14.80;99.90
24049;DHT22;12250;50.956;4.746;2022-07-29T05:21:32;14.90;99.90
24049;DHT22;12250;50.956;4.746;2022-07-29T05:23:57;15.00;99.90
24049;DHT22;12250;50.956;4.746;2022-07-29T05:26:23;15.10;99.90
24049;DHT22;12250;50.956;4.746;2022-07-29T05:28:49;15.20;99.90
24049;DHT22;12250;50.956;4.746;2022-07-29T05:31:14;15.30;99.90
24049;DHT22;12250;50.956;4.746;2022-07-29T05:33:41;15.40;99.90
24049;DHT22;12250;50.956;4.746;2022-07-29T05:36:07;15.60;99.90
24049;DHT22;12250;50.956;4.746;2022-07-29T05:38:34;15.70;99.90
24049;DHT22;12250;50.956;4.746;2022-07-29T05:40:59;15.80;99.90
24049;DHT22;12250;50.956;4.746;2022-07-29T05:43:27;15.90;99.90
24049;DHT22;12250;50.956;4.746;2022-07-29T05:45:53;16.10;99.90
24049;DHT22;12250;50.956;4.746;2022-07-29T05:48:18;16.30;99.90
24049;DHT22;12250;50.956;4.746;2022-07-29T05:50:44;16.40;99.90
24049;DHT22;12250;50.956;4.746;2022-07-29T05:53:10;16.50;99.90
24049;DHT22;12250;50.956;4.746;2022-07-29T05:55:35;16.70;99.90
24049;DHT22;12250;50.956;4.746;2022-07-29T05:58:01;16.90;99.90
24049;DHT22;12250;50.956;4.746;2022-07-29T06:00:26;17.00;99.90
24049;DHT22;12250;50.956;4.746;2022-07-29T06:02:52;17.20;99.90
24049;DHT22;12250;50.956;4.746;2022-07-29T06:05:18;17.40;99.90
24049;DHT22;12250;50.956;4.746;2022-07-29T06:07:44;17.70;99.90
24049;DHT22;12250;50.956;4.746;2022-07-29T06:10:10;17.90;99.90
24049;DHT22;12250;50.956;4.746;2022-07-29T06:12:36;18.10;99.90
24049;DHT22;12250;50.956;4.746;2022-07-29T06:15:02;18.40;99.90
24049;DHT22;12250;50.956;4.746;2022-07-29T06:17:28;18.60;99.90
24049;DHT22;12250;50.956;4.746;2022-07-29T06:19:53;18.90;99.90
24049;DHT22;12250;50.956;4.746;2022-07-29T06:22:19;19.20;99.90
24049;DHT22;12250;50.956;4.746;2022-07-29T06:24:44;19.40;99.90
24049;DHT22;12250;50.956;4.746;2022-07-29T06:27:11;19.50;99.90
24049;DHT22;12250;50.956;4.746;2022-07-29T06:29:36;19.70;99.90
24049;DHT22;12250;50.956;4.746;2022-07-29T06:32:02;19.70;99.90
24049;DHT22;12250;50.956;4.746;2022-07-29T06:34:28;19.60;99.90
24049;DHT22;12250;50.956;4.746;2022-07-29T06:36:53;19.60;99.90
24049;DHT22;12250;50.956;4.746;2022-07-29T06:39:20;19.50;99.90
24049;DHT22;12250;50.956;4.746;2022-07-29T06:41:49;19.50;99.90
24049;DHT22;12250;50.956;4.746;2022-07-29T06:44:16;19.30;99.90
24049;DHT22;12250;50.956;4.746;2022-07-29T06:46:43;19.30;99.90
24049;DHT22;12250;50.956;4.746;2022-07-29T06:49:09;19.20;99.90
24049;DHT22;12250;50.956;4.746;2022-07-29T06:51:36;19.20;99.90
24049;DHT22;12250;50.956;4.746;2022-07-29T06:54:02;19.10;99.90
24049;DHT22;12250;50.956;4.746;2022-07-29T06:56:31;19.00;99.90
24049;DHT22;12250;50.956;4.746;2022-07-29T06:58:57;19.00;99.90
24049;DHT22;12250;50.956;4.746;2022-07-29T07:01:22;19.00;99.90
24049;DHT22;12250;50.956;4.746;2022-07-29T07:03:48;19.00;99.90
24049;DHT22;12250;50.956;4.746;2022-07-29T07:06:13;19.00;99.90
24049;DHT22;12250;50.956;4.746;2022-07-29T07:08:39;19.10;99.90
24049;DHT22;12250;50.956;4.746;2022-07-29T07:11:06;19.10;99.90
24049;DHT22;12250;50.956;4.746;2022-07-29T07:13:32;19.20;99.90
24049;DHT22;12250;50.956;4.746;2022-07-29T07:16:00;19.10;99.90
24049;DHT22;12250;50.956;4.746;2022-07-29T07:18:26;19.10;99.90
24049;DHT22;12250;50.956;4.746;2022-07-29T07:20:52;19.20;99.90
24049;DHT22;12250;50.956;4.746;2022-07-29T07:23:18;19.20;99.90
24049;DHT22;12250;50.956;4.746;2022-07-29T07:25:44;19.30;99.90
24049;DHT22;12250;50.956;4.746;2022-07-29T07:28:10;19.40;99.90
24049;DHT22;12250;50.956;4.746;2022-07-29T07:30:36;19.40;99.90
24049;DHT22;12250;50.956;4.746;2022-07-29T07:33:02;19.50;99.90
24049;DHT22;12250;50.956;4.746;2022-07-29T07:35:28;19.50;99.90
24049;DHT22;12250;50.956;4.746;2022-07-29T07:37:55;19.60;99.90
24049;DHT22;12250;50.956;4.746;2022-07-29T07:40:21;19.60;99.90
24049;DHT22;12250;50.956;4.746;2022-07-29T07:42:46;19.70;99.90
24049;DHT22;12250;50.956;4.746;2022-07-29T07:45:12;19.90;99.90
24049;DHT22;12250;50.956;4.746;2022-07-29T07:47:38;19.90;99.90
24049;DHT22;12250;50.956;4.746;2022-07-29T07:50:06;20.00;99.90
24049;DHT22;12250;50.956;4.746;2022-07-29T07:52:32;20.10;99.90
24049;DHT22;12250;50.956;4.746;2022-07-29T07:54:58;20.20;99.90
24049;DHT22;12250;50.956;4.746;2022-07-29T07:57:24;20.30;99.90
24049;DHT22;12250;50.956;4.746;2022-07-29T07:59:49;20.40;99.90
24049;DHT22;12250;50.956;4.746;2022-07-29T08:02:15;20.60;99.90
24049;DHT22;12250;50.956;4.746;2022-07-29T08:04:41;20.80;99.90
24049;DHT22;12250;50.956;4.746;2022-07-29T08:07:07;21.00;99.90
24049;DHT22;12250;50.956;4.746;2022-07-29T08:09:34;21.10;99.90
24049;DHT22;12250;50.956;4.746;2022-07-29T08:12:00;21.20;99.90
24049;DHT22;12250;50.956;4.746;2022-07-29T08:14:30;21.80;99.40
24049;DHT22;12250;50.956;4.746;2022-07-29T08:16:55;22.80;97.50
24049;DHT22;12250;50.956;4.746;2022-07-29T08:19:21;23.70;96.10
24049;DHT22;12250;50.956;4.746;2022-07-29T08:21:47;25.30;93.60
24049;DHT22;12250;50.956;4.746;2022-07-29T08:24:13;28.10;87.00
24049;DHT22;12250;50.956;4.746;2022-07-29T08:26:57;31.20;69.70
24049;DHT22;12250;50.956;4.746;2022-07-29T08:29:22;33.80;56.70
24049;DHT22;12250;50.956;4.746;2022-07-29T08:31:48;35.30;49.50
24049;DHT22;12250;50.956;4.746;2022-07-29T08:34:14;36.60;46.40
24049;DHT22;12250;50.956;4.746;2022-07-29T08:36:39;38.00;43.00
24049;DHT22;12250;50.956;4.746;2022-07-29T08:39:05;39.10;39.50
24049;DHT22;12250;50.956;4.746;2022-07-29T08:41:31;39.70;37.70
24049;DHT22;12250;50.956;4.746;2022-07-29T08:43:57;40.20;36.10
24049;DHT22;12250;50.956;4.746;2022-07-29T08:46:23;40.40;36.10
24049;DHT22;12250;50.956;4.746;2022-07-29T08:48:49;40.60;35.50
24049;DHT22;12250;50.956;4.746;2022-07-29T08:51:17;41.60;34.40
24049;DHT22;12250;50.956;4.746;2022-07-29T08:53:44;41.90;32.80
24049;DHT22;12250;50.956;4.746;2022-07-29T08:56:17;42.10;32.10
24049;DHT22;12250;50.956;4.746;2022-07-29T08:58:47;42.80;31.00
24049;DHT22;12250;50.956;4.746;2022-07-29T09:01:21;43.30;30.60
24049;DHT22;12250;50.956;4.746;2022-07-29T09:03:47;43.80;29.90
24049;DHT22;12250;50.956;4.746;2022-07-29T09:06:14;44.00;29.40
24049;DHT22;12250;50.956;4.746;2022-07-29T09:08:41;44.20;28.60
24049;DHT22;12250;50.956;4.746;2022-07-29T09:11:07;44.20;28.60
24049;DHT22;12250;50.956;4.746;2022-07-29T09:13:33;44.50;28.70
24049;DHT22;12250;50.956;4.746;2022-07-29T09:16:00;44.10;27.80
24049;DHT22;12250;50.956;4.746;2022-07-29T09:21:02;44.30;28.60
24049;DHT22;12250;50.956;4.746;2022-07-29T09:24:06;44.70;27.80
24049;DHT22;12250;50.956;4.746;2022-07-29T09:26:34;44.10;27.70
24049;DHT22;12250;50.956;4.746;2022-07-29T09:29:17;43.90;27.90
24049;DHT22;12250;50.956;4.746;2022-07-29T09:31:45;44.00;27.80
24049;DHT22;12250;50.956;4.746;2022-07-29T09:34:14;43.60;27.80
24049;DHT22;12250;50.956;4.746;2022-07-29T09:39:05;44.00;27.70
24049;DHT22;12250;50.956;4.746;2022-07-29T09:41:50;44.40;27.50
24049;DHT22;12250;50.956;4.746;2022-07-29T09:44:18;44.40;27.10
24049;DHT22;12250;50.956;4.746;2022-07-29T09:46:56;44.00;27.10
24049;DHT22;12250;50.956;4.746;2022-07-29T09:49:23;42.90;28.10
24049;DHT22;12250;50.956;4.746;2022-07-29T09:52:08;42.40;28.30
24049;DHT22;12250;50.956;4.746;2022-07-29T09:54:35;43.10;28.30
24049;DHT22;12250;50.956;4.746;2022-07-29T09:57:06;43.40;27.00
24049;DHT22;12250;50.956;4.746;2022-07-29T09:59:32;43.80;26.90
24049;DHT22;12250;50.956;4.746;2022-07-29T10:01:58;44.10;26.70
24049;DHT22;12250;50.956;4.746;2022-07-29T10:04:35;43.90;27.10
24049;DHT22;12250;50.956;4.746;2022-07-29T10:07:02;43.80;27.20
24049;DHT22;12250;50.956;4.746;2022-07-29T10:09:31;43.90;27.60
24049;DHT22;12250;50.956;4.746;2022-07-29T10:12:11;44.20;26.20
24049;DHT22;12250;50.956;4.746;2022-07-29T10:14:39;43.90;25.80
24049;DHT22;12250;50.956;4.746;2022-07-29T10:17:06;44.40;26.20
24049;DHT22;12250;50.956;4.746;2022-07-29T10:19:33;44.50;26.70
24049;DHT22;12250;50.956;4.746;2022-07-29T10:21:59;44.70;26.30
24049;DHT22;12250;50.956;4.746;2022-07-29T10:24:27;44.70;26.20
24049;DHT22;12250;50.956;4.746;2022-07-29T10:26:55;45.10;26.00
24049;DHT22;12250;50.956;4.746;2022-07-29T10:29:21;45.30;25.70
24049;DHT22;12250;50.956;4.746;2022-07-29T10:34:31;44.30;26.00
24049;DHT22;12250;50.956;4.746;2022-07-29T10:42:47;43.70;26.30
24049;DHT22;12250;50.956;4.746;2022-07-29T10:45:16;43.60;27.20
24049;DHT22;12250;50.956;4.746;2022-07-29T10:47:42;44.50;26.00
24049;DHT22;12250;50.956;4.746;2022-07-29T10:50:08;45.40;25.70
24049;DHT22;12250;50.956;4.746;2022-07-29T10:58:30;45.40;25.50
24049;DHT22;12250;50.956;4.746;2022-07-29T11:00:55;44.90;25.60
24049;DHT22;12250;50.956;4.746;2022-07-29T11:03:43;44.30;26.20
24049;DHT22;12250;50.956;4.746;2022-07-29T11:06:13;43.50;26.10
24049;DHT22;12250;50.956;4.746;2022-07-29T11:08:39;43.20;27.00
24049;DHT22;12250;50.956;4.746;2022-07-29T11:11:30;43.30;26.50
24049;DHT22;12250;50.956;4.746;2022-07-29T11:13:56;43.60;26.80
24049;DHT22;12250;50.956;4.746;2022-07-29T11:16:22;44.30;26.10
24049;DHT22;12250;50.956;4.746;2022-07-29T11:21:36;43.80;26.00
24049;DHT22;12250;50.956;4.746;2022-07-29T11:24:12;43.20;26.20
24049;DHT22;12250;50.956;4.746;2022-07-29T11:26:38;43.00;26.60
24049;DHT22;12250;50.956;4.746;2022-07-29T11:29:20;42.90;26.00
24049;DHT22;12250;50.956;4.746;2022-07-29T11:31:49;42.30;26.80
24049;DHT22;12250;50.956;4.746;2022-07-29T11:34:24;41.10;27.20
24049;DHT22;12250;50.956;4.746;2022-07-29T11:39:44;40.10;29.30
24049;DHT22;12250;50.956;4.746;2022-07-29T11:45:12;40.10;28.40
24049;DHT22;12250;50.956;4.746;2022-07-29T11:47:50;38.60;29.20
24049;DHT22;12250;50.956;4.746;2022-07-29T11:52:53;34.90;34.60
24049;DHT22;12250;50.956;4.746;2022-07-29T11:55:20;34.70;34.70
24049;DHT22;12250;50.956;4.746;2022-07-29T11:57:56;34.40;34.20
24049;DHT22;12250;50.956;4.746;2022-07-29T12:00:42;34.00;34.90
24049;DHT22;12250;50.956;4.746;2022-07-29T12:03:11;33.50;35.30
24049;DHT22;12250;50.956;4.746;2022-07-29T12:05:41;33.50;36.70
24049;DHT22;12250;50.956;4.746;2022-07-29T12:08:16;33.70;38.00
24049;DHT22;12250;50.956;4.746;2022-07-29T12:10:44;34.00;36.00
24049;DHT22;12250;50.956;4.746;2022-07-29T12:13:12;33.60;36.80
24049;DHT22;12250;50.956;4.746;2022-07-29T12:15:38;32.70;37.00
24049;DHT22;12250;50.956;4.746;2022-07-29T12:18:11;31.80;38.60
24049;DHT22;12250;50.956;4.746;2022-07-29T12:20:37;31.00;40.70
24049;DHT22;12250;50.956;4.746;2022-07-29T12:23:08;30.50;41.40
24049;DHT22;12250;50.956;4.746;2022-07-29T12:25:35;30.20;41.90
24049;DHT22;12250;50.956;4.746;2022-07-29T12:28:07;30.30;42.30
24049;DHT22;12250;50.956;4.746;2022-07-29T12:30:47;30.50;42.40
24049;DHT22;12250;50.956;4.746;2022-07-29T12:33:22;31.00;42.50
24049;DHT22;12250;50.956;4.746;2022-07-29T12:35:54;31.70;41.10
24049;DHT22;12250;50.956;4.746;2022-07-29T12:38:20;32.20;40.60
24049;DHT22;12250;50.956;4.746;2022-07-29T12:40:47;32.80;38.80
24049;DHT22;12250;50.956;4.746;2022-07-29T12:43:15;33.00;37.50
24049;DHT22;12250;50.956;4.746;2022-07-29T12:45:47;33.00;38.30
24049;DHT22;12250;50.956;4.746;2022-07-29T12:48:13;33.00;37.00
24049;DHT22;12250;50.956;4.746;2022-07-29T12:50:59;33.00;36.90
24049;DHT22;12250;50.956;4.746;2022-07-29T12:53:27;33.00;36.90
24049;DHT22;12250;50.956;4.746;2022-07-29T12:55:54;32.50;36.90
24049;DHT22;12250;50.956;4.746;2022-07-29T12:58:28;31.90;37.90
24049;DHT22;12250;50.956;4.746;2022-07-29T13:01:01;31.70;38.40
24049;DHT22;12250;50.956;4.746;2022-07-29T13:03:27;31.00;39.80
24049;DHT22;12250;50.956;4.746;2022-07-29T13:05:52;30.70;40.70
24049;DHT22;12250;50.956;4.746;2022-07-29T13:08:18;30.30;41.80
24049;DHT22;12250;50.956;4.746;2022-07-29T13:10:45;30.30;42.80
24049;DHT22;12250;50.956;4.746;2022-07-29T13:13:13;30.70;41.80
24049;DHT22;12250;50.956;4.746;2022-07-29T13:15:43;31.00;40.80
24049;DHT22;12250;50.956;4.746;2022-07-29T13:20:53;30.90;41.20
24049;DHT22;12250;50.956;4.746;2022-07-29T13:23:19;31.20;40.20
24049;DHT22;12250;50.956;4.746;2022-07-29T13:25:46;31.40;41.20
24049;DHT22;12250;50.956;4.746;2022-07-29T13:28:11;31.70;41.30
24049;DHT22;12250;50.956;4.746;2022-07-29T13:30:39;32.00;39.00
24049;DHT22;12250;50.956;4.746;2022-07-29T13:33:04;32.20;37.30
24049;DHT22;12250;50.956;4.746;2022-07-29T13:35:30;32.20;38.20
24049;DHT22;12250;50.956;4.746;2022-07-29T13:37:55;32.20;37.50
24049;DHT22;12250;50.956;4.746;2022-07-29T13:40:21;32.20;37.70
24049;DHT22;12250;50.956;4.746;2022-07-29T13:42:47;32.30;37.80
24049;DHT22;12250;50.956;4.746;2022-07-29T13:45:13;32.40;38.50
24049;DHT22;12250;50.956;4.746;2022-07-29T13:47:39;32.30;37.40
24049;DHT22;12250;50.956;4.746;2022-07-29T13:50:07;32.20;37.90
24049;DHT22;12250;50.956;4.746;2022-07-29T13:52:33;31.90;38.20
24049;DHT22;12250;50.956;4.746;2022-07-29T13:55:00;31.20;38.00
24049;DHT22;12250;50.956;4.746;2022-07-29T13:57:25;30.90;40.10
24049;DHT22;12250;50.956;4.746;2022-07-29T13:59:51;30.70;39.20
24049;DHT22;12250;50.956;4.746;2022-07-29T14:02:16;30.60;40.00
24049;DHT22;12250;50.956;4.746;2022-07-29T14:04:42;30.40;40.40
24049;DHT22;12250;50.956;4.746;2022-07-29T14:07:08;30.50;41.10
24049;DHT22;12250;50.956;4.746;2022-07-29T14:09:35;30.80;41.30
24049;DHT22;12250;50.956;4.746;2022-07-29T14:12:01;31.20;40.10
24049;DHT22;12250;50.956;4.746;2022-07-29T14:14:28;31.60;39.20
24049;DHT22;12250;50.956;4.746;2022-07-29T14:16:54;31.80;38.80
24049;DHT22;12250;50.956;4.746;2022-07-29T14:19:19;31.90;39.10
24049;DHT22;12250;50.956;4.746;2022-07-29T14:21:46;32.10;38.10
24049;DHT22;12250;50.956;4.746;2022-07-29T14:24:12;32.00;38.30
24049;DHT22;12250;50.956;4.746;2022-07-29T14:26:38;31.70;38.70
24049;DHT22;12250;50.956;4.746;2022-07-29T14:29:03;31.20;38.80
24049;DHT22;12250;50.956;4.746;2022-07-29T14:31:29;30.90;40.00
24049;DHT22;12250;50.956;4.746;2022-07-29T14:33:54;30.90;40.70
24049;DHT22;12250;50.956;4.746;2022-07-29T14:36:20;30.70;39.70
24049;DHT22;12250;50.956;4.746;2022-07-29T14:38:46;30.60;41.10
24049;DHT22;12250;50.956;4.746;2022-07-29T14:41:12;30.50;41.50
24049;DHT22;12250;50.956;4.746;2022-07-29T14:43:38;30.20;41.90
24049;DHT22;12250;50.956;4.746;2022-07-29T14:46:04;29.90;42.20
24049;DHT22;12250;50.956;4.746;2022-07-29T14:48:29;29.50;42.20
24049;DHT22;12250;50.956;4.746;2022-07-29T14:50:55;29.10;43.20
24049;DHT22;12250;50.956;4.746;2022-07-29T14:53:21;29.10;43.40
24049;DHT22;12250;50.956;4.746;2022-07-29T14:55:47;29.00;43.20
24049;DHT22;12250;50.956;4.746;2022-07-29T14:58:13;28.90;43.50
24049;DHT22;12250;50.956;4.746;2022-07-29T15:00:39;28.90;43.80
24049;DHT22;12250;50.956;4.746;2022-07-29T15:03:05;28.80;43.80
24049;DHT22;12250;50.956;4.746;2022-07-29T15:05:31;28.80;43.40
24049;DHT22;12250;50.956;4.746;2022-07-29T15:07:57;28.70;44.30
24049;DHT22;12250;50.956;4.746;2022-07-29T15:10:24;28.60;43.90
24049;DHT22;12250;50.956;4.746;2022-07-29T15:12:51;28.70;43.90
24049;DHT22;12250;50.956;4.746;2022-07-29T15:15:18;28.80;43.80
24049;DHT22;12250;50.956;4.746;2022-07-29T15:17:43;28.90;44.20
24049;DHT22;12250;50.956;4.746;2022-07-29T15:20:09;29.00;43.00
24049;DHT22;12250;50.956;4.746;2022-07-29T15:22:36;29.20;42.60
24049;DHT22;12250;50.956;4.746;2022-07-29T15:25:05;29.80;42.50
24049;DHT22;12250;50.956;4.746;2022-07-29T15:27:30;30.20;41.50
24049;DHT22;12250;50.956;4.746;2022-07-29T15:29:56;30.50;41.80
24049;DHT22;12250;50.956;4.746;2022-07-29T15:32:22;30.90;40.20
24049;DHT22;12250;50.956;4.746;2022-07-29T15:34:49;31.20;39.80
24049;DHT22;12250;50.956;4.746;2022-07-29T15:37:15;31.40;39.30
24049;DHT22;12250;50.956;4.746;2022-07-29T15:39:40;31.30;39.30
24049;DHT22;12250;50.956;4.746;2022-07-29T15:42:06;31.30;38.80
24049;DHT22;12250;50.956;4.746;2022-07-29T15:44:32;31.20;40.00
24049;DHT22;12250;50.956;4.746;2022-07-29T15:46:57;31.20;38.70
24049;DHT22;12250;50.956;4.746;2022-07-29T15:52:01;30.60;39.40
24049;DHT22;12250;50.956;4.746;2022-07-29T15:54:28;30.40;40.00
24049;DHT22;12250;50.956;4.746;2022-07-29T15:56:54;30.00;40.50
24049;DHT22;12250;50.956;4.746;2022-07-29T15:59:21;29.90;40.50
24049;DHT22;12250;50.956;4.746;2022-07-29T16:01:47;29.80;40.00
24049;DHT22;12250;50.956;4.746;2022-07-29T16:04:13;29.70;40.50
24049;DHT22;12250;50.956;4.746;2022-07-29T16:06:39;29.70;40.10
24049;DHT22;12250;50.956;4.746;2022-07-29T16:09:04;29.70;40.10
24049;DHT22;12250;50.956;4.746;2022-07-29T16:11:30;29.80;40.90
24049;DHT22;12250;50.956;4.746;2022-07-29T16:13:56;29.90;39.90
24049;DHT22;12250;50.956;4.746;2022-07-29T16:16:21;29.90;40.60
24049;DHT22;12250;50.956;4.746;2022-07-29T16:18:47;29.90;40.40
24049;DHT22;12250;50.956;4.746;2022-07-29T16:21:13;29.80;40.30
24049;DHT22;12250;50.956;4.746;2022-07-29T16:23:39;29.60;40.90